• Join FlightAware (Why Join?)
  • Login
  • US Flag 
12:00PM EST


 

Airport Tracker/Info


-or-


 

Live Flight TrackerFlight Track Log ✈ AAY846 ✈ 17-Aug-2014 ✈ KPIE - KPIA

Flight Track Log - Related Links

Times and Time Zones

All times are in EDT time to prevent confusion due to time zone crossing. See the AAY846 flight status page for this flight to view local times or setup timezone preferences in your user account.

Time Position Orientation Groundspeed Altitude Reporting Facility
EDT Latitude Longitude Course Direction KTS MPH feet Rate Location/Type
08:28AM 27.8833 -82.6833 164° South 169 194 1,000  Level Tampa TRACON
08:29AM 27.8333 -82.6667 164° South 206 237 3,000 1,600 Climbing Tampa TRACON
08:30AM 27.7833 -82.7167 222° Southwest 262 302 4,200 2,053 Climbing Tampa TRACON
08:31AM 27.8167 -82.7833 299° West 290 334 6,900 2,650 Climbing Tampa TRACON
08:32AM 27.9000 -82.8000 350° North 297 342 9,500 1,891 Climbing Tampa TRACON
08:33AM 28.0519 -82.8056 358° North 307 353 12,100 1,511 Climbing Jacksonville Center
08:34AM 28.1022 -82.8358 332° Northwest 357 411 13,000 1,705 Climbing Miami Center
08:35AM 28.1978 -82.8978 330° Northwest 386 444 14,800 1,854 Climbing Miami Center
08:36AM 28.2994 -82.9594 332° Northwest 405 466 16,800 1,756 Climbing Miami Center
08:37AM 28.4025 -83.0225 332° Northwest 412 474 18,400 1,659 Climbing Miami Center
08:38AM 28.5086 -83.0869 332° Northwest 425 489 20,200 1,561 Climbing Miami Center
08:39AM 28.6194 -83.1553 332° Northwest 435 501 21,600 1,377 Climbing Miami Center
08:40AM 28.7283 -83.2219 332° Northwest 442 509 23,000 1,268 Climbing Miami Center
08:41AM 28.8414 -83.2919 332° Northwest 455 524 24,200 1,317 Climbing Miami Center
08:42AM 28.9558 -83.3561 334° Northwest 457 526 25,700 1,463 Climbing Miami Center
08:43AM 29.0750 -83.4033 341° North 455 524 27,200 1,122 Climbing Miami Center
08:44AM 29.2167 -83.4644 339° North 452 520 28,000 1,122 Climbing Miami Center
08:45AM 29.3433 -83.4850 352° North 461 531 29,500 864 Climbing Miami Center
08:46AM 29.4906 -83.5011 355° North 445 512 29,900 231 Climbing Jacksonville Center
08:47AM 29.6178 -83.5136 355° North 450 518 30,000  Climbing Jacksonville Center
08:48AM 29.7306 -83.5264 354° North 450 518 29,900  Descending Jacksonville Center
08:49AM 29.8578 -83.5369 356° North 450 518 30,000 600 Climbing Jacksonville Center
08:50AM 29.9744 -83.5808 342° North 435 501 31,100 950 Climbing Jacksonville Center
08:51AM 30.0911 -83.6319 339° North 440 506 31,900 450 Climbing Jacksonville Center
08:52AM 30.2161 -83.6522 352° North 440 506 32,000 50 Climbing Jacksonville Center
08:53AM 30.3436 -83.6700 353° North 450 518 32,000 -50 Level Jacksonville Center
08:54AM 30.4686 -83.6878 353° North 450 518 31,900  Descending Jacksonville Center
08:55AM 30.5875 -83.7058 353° North 444 511 32,000 50 Climbing Jacksonville Center
08:56AM 30.7000 -83.7672 335° Northwest 437 503 32,000  Level Jacksonville Center
08:57AM 30.8078 -83.8456 328° Northwest 437 503 32,000  Level Jacksonville Center
08:58AM 30.9117 -83.9264 326° Northwest 445 512 32,000  Level Jacksonville Center
08:59AM 31.0175 -84.0028 328° Northwest 450 518 32,000  Level Jacksonville Center
09:00AM 31.1233 -84.0817 327° Northwest 450 518 32,000  Level Jacksonville Center
09:01AM 31.2311 -84.1608 328° Northwest 456 525 32,000  Level Jacksonville Center
09:02AM 31.3367 -84.2400 327° Northwest 456 525 32,000  Level Jacksonville Center
09:05AM 31.5750 -84.4192 327° Northwest 461 531 32,000  Level Atlanta Center
09:06AM 31.6811 -84.4975 328° Northwest 461 531 32,000  Level Atlanta Center
09:07AM 31.7892 -84.5789 327° Northwest 461 531 32,000  Level Atlanta Center
09:08AM 31.8953 -84.6603 327° Northwest 461 531 32,000  Level Atlanta Center
09:09AM 32.0056 -84.7417 328° Northwest 461 531 32,000  Level Atlanta Center
09:10AM 32.1114 -84.8211 328° Northwest 461 531 32,000  Level Atlanta Center
09:11AM 32.2175 -84.9031 327° Northwest 456 525 32,000  Level Atlanta Center
09:12AM 32.3233 -84.9778 329° Northwest 451 519 32,000  Level Atlanta Center
09:13AM 32.4250 -85.0575 327° Northwest 451 519 32,000  Level Atlanta Center
09:14AM 32.5350 -85.1403 328° Northwest 457 526 32,000  Level Atlanta Center
09:15AM 32.6344 -85.2153 328° Northwest 452 520 32,000  Level Atlanta Center
09:16AM 32.7503 -85.3058 327° Northwest 460 529 32,000  Level Atlanta Center
09:17AM 32.8497 -85.3839 327° Northwest 460 529 32,000  Level Atlanta Center
09:18AM 32.9572 -85.4647 328° Northwest 460 529 32,000  Level Atlanta Center
09:19AM 33.0586 -85.5458 326° Northwest 460 529 32,000  Level Atlanta Center
09:20AM 33.1661 -85.6294 327° Northwest 460 529 32,000  Level Atlanta Center
09:21AM 33.2714 -85.7133 326° Northwest 460 529 32,000  Level Atlanta Center
09:22AM 33.3644 -85.7897 326° Northwest 460 529 32,000  Level Atlanta Center
09:23AM 33.4781 -85.8744 328° Northwest 449 517 32,000  Level Atlanta Center
09:24AM 33.5811 -85.9564 326° Northwest 449 517 32,000  Level Atlanta Center
09:25AM 33.6822 -86.0333 328° Northwest 438 504 32,000  Level Atlanta Center
09:26AM 33.7850 -86.1183 326° Northwest 438 504 32,000  Level Atlanta Center
09:27AM 33.8881 -86.2008 326° Northwest 438 504 32,000  Level Atlanta Center
09:28AM 33.9950 -86.2839 327° Northwest 438 504 32,000  Level Atlanta Center
09:29AM 34.0958 -86.3667 326° Northwest 438 504 32,000  Level Atlanta Center
09:29AM 34.1564 -86.4153 326° Northwest 445 512 32,000  Level Memphis Center
09:30AM 34.2594 -86.4978 327° Northwest 445 512 32,000  Level Memphis Center
09:31AM 34.3622 -86.5808 326° Northwest 445 512 32,000  Level Memphis Center
09:32AM 34.4856 -86.6803 326° Northwest 446 513 32,000  Level Memphis Center
09:33AM 34.5894 -86.7647 326° Northwest 446 513 32,000  Level Memphis Center
09:34AM 34.6928 -86.8489 326° Northwest 448 516 32,000  Level Memphis Center
09:35AM 34.7958 -86.9331 326° Northwest 448 516 32,000  Level Memphis Center
09:36AM 34.8981 -87.0172 326° Northwest 448 516 32,000  Level Memphis Center
09:37AM 34.9917 -87.1103 321° Northwest 450 518 32,000  Level Memphis Center
09:38AM 35.0839 -87.2511 309° West 448 516 32,000  Level Memphis Center
09:39AM 35.1531 -87.3725 305° West 444 511 32,000  Level Memphis Center
09:41AM 35.2136 -87.4997 300° West 442 509 32,000  Level Memphis Center
09:42AM 35.2614 -87.6344 294° West 441 507 32,000  Level Memphis Center
09:43AM 35.3069 -87.7681 293° West 434 499 32,000  Level Memphis Center
09:44AM 35.3375 -87.9094 285° West 433 498 32,000  Level Memphis Center
09:45AM 35.3414 -88.0564 272° West 433 498 32,000  Level Memphis Center
09:46AM 35.3356 -88.2308 268° West 430 495 32,000  Level Memphis Center
09:47AM 35.3444 -88.3769 274° West 443 510 32,000  Level Memphis Center
09:48AM 35.4286 -88.4897 313° West 436 502 32,000  Level Memphis Center
09:49AM 35.5436 -88.5519 336° Northwest 450 518 32,000  Level Memphis Center
09:50AM 35.6594 -88.6161 336° Northwest 451 519 32,000  Level Memphis Center
09:51AM 35.7753 -88.6808 336° Northwest 452 520 32,000  Level Memphis Center
09:52AM 35.8983 -88.7094 349° North 454 522 32,000  Level Memphis Center
09:53AM 36.0236 -88.7333 351° North 456 525 32,000  Level Memphis Center
09:54AM 36.1486 -88.7583 351° North 456 525 32,000  Level Memphis Center
09:55AM 36.2989 -88.7872 351° North 456 525 32,000  Level Memphis Center
09:56AM 36.4253 -88.8106 352° North 457 526 32,000  Level Memphis Center
09:57AM 36.5511 -88.8364 351° North 457 526 32,000  Level Memphis Center
09:58AM 36.6778 -88.8608 351° North 461 531 32,000  Level Memphis Center
09:59AM 36.8031 -88.8869 351° North 461 531 32,000  Level Memphis Center
10:00AM 36.9281 -88.9117 351° North 460 529 32,000  Level Memphis Center
10:01AM 37.0525 -88.9353 351° North 457 526 32,000  Level Memphis Center
10:02AM 37.2050 -88.9661 351° North 459 528 32,000  Level Memphis Center
10:03AM 37.3306 -88.9911 351° North 459 528 32,000  Level Memphis Center
10:04AM 37.4547 -89.0167 351° North 458 527 32,000  Level Memphis Center
10:05AM 37.5803 -89.0411 351° North 455 524 32,000  Level Memphis Center
10:06AM 37.7067 -89.0675 351° North 456 525 32,000  Level Memphis Center
10:07AM 37.8319 -89.0928 351° North 456 525 32,000  Level Memphis Center
10:08AM 37.9547 -89.1189 350° North 453 521 32,000  Level Memphis Center
10:09AM 38.0794 -89.1425 352° North 453 521 32,000 -367 Level Memphis Center
10:11AM 38.2614 -89.1817 350° North 453 521 31,100 -1,102 Descending Kansas City Center
10:12AM 38.3889 -89.2069 351° North 454 522 29,300 -1,854 Descending Kansas City Center
10:13AM 38.5139 -89.2336 351° North 454 522 27,300 -1,636 Descending Kansas City Center
10:14AM 38.6344 -89.2583 351° North 454 522 26,000 -629 Descending Kansas City Center
10:15AM 38.7864 -89.2897 351° North 457 526 26,000  Level Kansas City Center
10:16AM 38.8958 -89.3114 351° North 457 526 26,000 -48 Level Kansas City Center
10:17AM 39.0414 -89.3411 351° North 446 513 25,900 -768 Descending Kansas City Center
10:18AM 39.1619 -89.3672 350° North 437 503 24,400 -942 Descending Kansas City Center
10:19AM 39.2703 -89.3892 351° North 439 505 24,000 -194 Descending Kansas City Center
10:20AM 39.3919 -89.4158 350° North 442 509 24,000 -571 Level Kansas City Center
10:21AM 39.5392 -89.4472 351° North 446 513 22,800 -1,623 Descending Kansas City Center
10:22AM 39.6597 -89.4739 350° North 446 513 20,700 -2,033 Descending Kansas City Center
10:23AM 39.7631 -89.4953 351° North 433 498 18,700 -2,226 Descending Kansas City Center
10:24AM 39.8975 -89.5247 350° North 412 474 16,100 -2,390 Descending Kansas City Center
10:25AM 40.0053 -89.5483 350° North 398 458 13,800 -2,081 Descending Kansas City Center
10:26AM 40.1092 -89.5697 351° North 385 443 11,800 -1,787 Descending Kansas City Center
10:27AM 40.1692 -89.5853 349° North 379 436 11,000 -848 Descending Chicago Center
10:28AM 40.2564 -89.6222 342° North 332 382 10,500 -452 Descending Chicago Center
10:28AM 40.2897 -89.6367 342° North 325 374 10,300 -1,258 Descending Kansas City Center
10:29AM 40.3344 -89.6586 339° North 298 343 9,200 -2,129 Descending Chicago Center
10:30AM 40.4092 -89.6922 341° North 289 333 7,000 -1,839 Descending Chicago Center
10:31AM 40.4831 -89.7306 338° Northwest 288 331 5,400 -1,452 Descending Chicago Center
10:32AM 40.5489 -89.7839 328° Northwest 288 331 4,000 -677 Descending Chicago Center
10:33AM 40.5878 -89.8581 305° West 260 299 4,000  Level Chicago Center
10:34AM 40.6244 -89.9258 305° West 237 273 4,000 -629 Level Chicago Center
10:35AM 40.6803 -89.9406 349° North 214 246 2,700 -732 Descending Chicago Center
10:36AM 40.7378 -89.9256 11° North 192 221 2,500 -98 Descending Chicago Center
10:37AM 40.7575 -89.8783 61° Northeast 176 203 2,500  Level Chicago Center
10:38AM 40.7372 -89.8253 117° Southeast 167 192 2,500 -290 Level Chicago Center
10:39AM 40.7103 -89.7769 126° Southeast 164 189 1,900 -677 Descending Chicago Center
10:40AM 40.6864 -89.7350 127° Southeast 153 176 1,100 -532 Descending Chicago Center
10:41AM 40.6639 -89.6950 127° Southeast 149 171 800 -290 Descending Chicago Center